createdAt,value
2022-11-06T00:00:48.558Z,38.20
2022-11-06T00:01:48.590Z,40.30
2022-11-06T00:02:48.645Z,38.90
2022-11-06T00:03:48.558Z,41.00
2022-11-06T00:04:48.534Z,39.90
2022-11-06T00:05:48.539Z,41.00
2022-11-06T00:06:48.527Z,28.40
2022-11-06T00:07:48.519Z,33.80
2022-11-06T00:08:48.514Z,38.90
2022-11-06T00:09:48.518Z,39.70
2022-11-06T00:10:48.499Z,40.50
2022-11-06T00:11:48.507Z,42.40
2022-11-06T00:12:48.492Z,42.30
2022-11-06T00:13:48.482Z,40.30
2022-11-06T00:14:48.517Z,40.20
2022-11-06T00:15:48.470Z,39.20
2022-11-06T00:16:48.462Z,40.60
2022-11-06T00:17:48.523Z,41.50
2022-11-06T00:18:48.449Z,37.30
2022-11-06T00:19:48.461Z,37.90
2022-11-06T00:20:48.457Z,41.10
2022-11-06T00:21:48.443Z,44.10
2022-11-06T00:22:49.271Z,43.70
2022-11-06T00:23:48.433Z,30.50
2022-11-06T00:24:48.435Z,33.80
2022-11-06T00:25:48.401Z,37.20
2022-11-06T00:26:54.015Z,38.40
2022-11-06T00:27:50.394Z,43.00
2022-11-06T00:28:48.387Z,42.60
2022-11-06T00:29:48.413Z,45.20
2022-11-06T00:30:48.376Z,44.20
2022-11-06T00:31:48.366Z,43.70
2022-11-06T00:32:48.393Z,45.80
2022-11-06T00:33:48.413Z,46.70
2022-11-06T00:34:48.349Z,49.80
2022-11-06T00:35:48.386Z,47.60
2022-11-06T00:36:48.341Z,48.70
2022-11-06T00:37:48.429Z,49.80
2022-11-06T00:38:48.345Z,49.90
2022-11-06T00:39:48.315Z,49.70
2022-11-06T00:40:48.335Z,46.30
2022-11-06T00:41:48.313Z,41.10
2022-11-06T00:42:48.327Z,37.30
2022-11-06T00:43:48.329Z,42.20
2022-11-06T00:44:48.282Z,48.60
2022-11-06T00:45:48.290Z,48.10
2022-11-06T00:46:48.300Z,50.00
2022-11-06T00:47:48.837Z,47.50
2022-11-06T00:48:48.282Z,48.00
2022-11-06T00:49:48.265Z,51.20
2022-11-06T00:50:52.383Z,53.30
2022-11-06T00:52:20.199Z,45.20
2022-11-06T00:52:48.248Z,39.00
2022-11-06T00:53:48.262Z,46.10
2022-11-06T00:54:48.233Z,51.50
2022-11-06T00:55:48.226Z,49.80
2022-11-06T00:56:48.223Z,51.70
2022-11-06T00:57:48.217Z,50.50
2022-11-06T00:58:48.220Z,52.30
2022-11-06T00:59:48.233Z,50.80
2022-11-06T01:00:48.225Z,51.70
2022-11-06T01:01:48.325Z,54.00
2022-11-06T01:02:48.369Z,48.70
2022-11-06T01:03:48.187Z,52.50
2022-11-06T01:04:48.184Z,45.60
2022-11-06T01:05:48.183Z,52.40
2022-11-06T01:06:48.183Z,45.80
2022-11-06T01:07:48.183Z,28.50
2022-11-06T01:08:48.180Z,36.70
2022-11-06T01:09:48.168Z,39.10
2022-11-06T01:10:48.140Z,44.20
2022-11-06T01:12:50.126Z,48.50
2022-11-06T01:13:48.141Z,49.20
2022-11-06T01:14:48.126Z,49.90
2022-11-06T01:15:48.136Z,49.90
2022-11-06T01:16:48.124Z,46.20
2022-11-06T01:17:48.109Z,45.80
2022-11-06T01:18:48.103Z,43.50
2022-11-06T01:19:48.239Z,48.90
2022-11-06T01:20:48.080Z,52.80
2022-11-06T01:21:48.096Z,53.50
2022-11-06T01:22:48.074Z,56.50
2022-11-06T01:23:48.060Z,42.30
2022-11-06T01:24:48.259Z,44.60
2022-11-06T01:25:48.056Z,49.00
2022-11-06T01:27:11.968Z,50.00
2022-11-06T01:27:50.055Z,45.00
2022-11-06T01:28:48.034Z,47.40
2022-11-06T01:29:48.057Z,46.60
2022-11-06T01:30:48.022Z,44.20
2022-11-06T01:31:48.022Z,42.60
2022-11-06T01:32:48.022Z,40.90
2022-11-06T01:33:48.006Z,47.40
2022-11-06T01:34:48.029Z,50.80
2022-11-06T01:35:48.985Z,46.00
2022-11-06T01:36:47.996Z,32.70
2022-11-06T01:37:47.977Z,42.50
2022-11-06T01:38:47.973Z,47.50
2022-11-06T01:39:47.969Z,45.50
2022-11-06T01:40:47.973Z,48.60
2022-11-06T01:41:47.959Z,45.10
2022-11-06T01:42:47.977Z,46.60
2022-11-06T01:43:47.937Z,46.40
2022-11-06T01:44:47.929Z,47.80
2022-11-06T01:45:47.954Z,43.30
2022-11-06T01:46:47.935Z,44.70
2022-11-06T01:47:47.921Z,48.00
2022-11-06T01:48:47.945Z,45.00
2022-11-06T01:49:47.921Z,49.80
2022-11-06T01:50:47.989Z,45.90
2022-11-06T01:51:47.906Z,47.00
2022-11-06T01:52:47.897Z,48.30
2022-11-06T01:53:47.895Z,41.30
2022-11-06T01:54:47.885Z,44.80
2022-11-06T01:55:47.901Z,44.60
2022-11-06T01:56:47.878Z,49.20
2022-11-06T01:57:47.878Z,46.40
2022-11-06T01:58:47.865Z,49.00
2022-11-06T01:59:47.882Z,50.30
2022-11-06T02:00:47.866Z,51.50
2022-11-06T02:01:47.900Z,50.40
2022-11-06T02:02:48.008Z,44.30
2022-11-06T02:03:47.835Z,45.90
2022-11-06T02:04:47.816Z,45.30
2022-11-06T02:05:47.830Z,48.60
2022-11-06T02:06:47.822Z,49.70
2022-11-06T02:07:47.814Z,54.40
2022-11-06T02:08:47.799Z,56.60
2022-11-06T02:09:47.802Z,35.80
2022-11-06T02:10:47.778Z,45.30
2022-11-06T02:11:47.943Z,45.80
2022-11-06T02:12:47.778Z,46.30
2022-11-06T02:13:47.917Z,51.70
2022-11-06T02:14:47.774Z,53.20
2022-11-06T02:15:47.761Z,53.70
2022-11-06T02:16:47.794Z,51.70
2022-11-06T02:17:47.772Z,52.30
2022-11-06T02:18:47.766Z,51.90
2022-11-06T02:19:47.737Z,53.70
2022-11-06T02:20:47.746Z,45.50
2022-11-06T02:21:47.717Z,45.50
2022-11-06T02:22:48.720Z,45.50
2022-11-06T02:23:47.729Z,47.50
2022-11-06T02:24:47.715Z,48.80
2022-11-06T02:25:48.690Z,46.40
2022-11-06T02:26:47.697Z,44.80
2022-11-06T02:27:47.698Z,49.40
2022-11-06T02:28:47.694Z,47.30
2022-11-06T02:29:47.676Z,50.80
2022-11-06T02:30:48.672Z,54.90
2022-11-06T02:31:47.688Z,56.00
2022-11-06T02:32:47.698Z,61.40
2022-11-06T02:33:50.307Z,56.20
2022-11-06T02:34:47.644Z,59.60
2022-11-06T02:35:47.663Z,34.20
2022-11-06T02:36:48.286Z,46.00
2022-11-06T02:37:47.645Z,43.10
2022-11-06T02:38:47.654Z,44.40
2022-11-06T02:39:48.719Z,46.80
2022-11-06T02:40:47.647Z,45.90
2022-11-06T02:41:47.608Z,45.10
2022-11-06T02:42:47.599Z,42.10
2022-11-06T02:43:47.615Z,42.50
2022-11-06T02:44:47.612Z,47.00
2022-11-06T02:45:47.595Z,48.20
2022-11-06T02:46:47.585Z,47.50
2022-11-06T02:47:47.566Z,49.20
2022-11-06T02:48:47.560Z,51.90
2022-11-06T02:49:47.563Z,55.90
2022-11-06T02:50:47.560Z,62.10
2022-11-06T02:51:47.566Z,36.90
2022-11-06T02:52:47.542Z,48.30
2022-11-06T02:53:47.539Z,47.30
2022-11-06T02:54:47.512Z,48.50
2022-11-06T02:55:47.527Z,45.40
2022-11-06T02:56:47.518Z,48.70
2022-11-06T02:57:47.524Z,48.30
2022-11-06T02:58:49.167Z,48.00
2022-11-06T02:59:48.496Z,49.80
2022-11-06T03:00:47.534Z,49.70
2022-11-06T03:01:47.583Z,51.40
2022-11-06T03:02:47.698Z,56.40
2022-11-06T03:03:47.548Z,60.00
2022-11-06T03:04:47.459Z,60.30
2022-11-06T03:05:47.481Z,57.10
2022-11-06T03:06:47.456Z,59.00
2022-11-06T03:07:47.445Z,33.70
2022-11-06T03:08:47.441Z,50.80
2022-11-06T03:09:47.452Z,47.70
2022-11-06T03:10:47.458Z,47.10
2022-11-06T03:11:47.424Z,50.70
2022-11-06T03:12:47.424Z,49.10
2022-11-06T03:13:47.430Z,49.40
2022-11-06T03:14:47.415Z,48.20
2022-11-06T03:15:47.415Z,50.60
2022-11-06T03:16:47.425Z,51.80
2022-11-06T03:17:47.400Z,50.60
2022-11-06T03:18:47.412Z,55.20
2022-11-06T03:19:47.376Z,55.90
2022-11-06T03:20:47.376Z,55.40
2022-11-06T03:21:47.391Z,57.60
2022-11-06T03:22:47.368Z,56.90
2022-11-06T03:23:47.376Z,56.50
2022-11-06T03:24:47.348Z,56.60
2022-11-06T03:25:47.349Z,35.10
2022-11-06T03:26:47.355Z,47.30
2022-11-06T03:27:47.348Z,50.10
2022-11-06T03:28:47.325Z,48.90
2022-11-06T03:29:47.315Z,48.90
2022-11-06T03:30:47.319Z,46.10
2022-11-06T03:31:47.297Z,47.60
2022-11-06T03:32:47.324Z,48.80
2022-11-06T03:33:47.308Z,48.10
2022-11-06T03:34:47.293Z,49.40
2022-11-06T03:35:47.281Z,50.50
2022-11-06T03:36:47.289Z,50.00
2022-11-06T03:37:47.289Z,53.90
2022-11-06T03:38:47.261Z,51.50
2022-11-06T03:39:47.256Z,52.00
2022-11-06T03:40:47.241Z,59.00
2022-11-06T03:41:48.254Z,61.20
2022-11-06T03:42:47.265Z,40.30
2022-11-06T03:43:47.256Z,45.60
2022-11-06T03:44:47.224Z,44.70
2022-11-06T03:45:47.218Z,42.50
2022-11-06T03:46:47.246Z,46.20
2022-11-06T03:47:47.224Z,46.00
2022-11-06T03:48:47.226Z,52.70
2022-11-06T03:49:47.219Z,50.90
2022-11-06T03:50:47.201Z,51.90
2022-11-06T03:51:47.184Z,49.90
2022-11-06T03:52:47.193Z,53.80
2022-11-06T03:53:47.193Z,53.90
2022-11-06T03:54:47.184Z,56.30
2022-11-06T03:55:47.160Z,54.70
2022-11-06T03:56:47.164Z,53.20
2022-11-06T03:57:47.169Z,34.30
2022-11-06T03:58:47.245Z,46.20
2022-11-06T03:59:47.138Z,42.00
2022-11-06T04:00:47.150Z,43.40
2022-11-06T04:01:47.223Z,43.60
2022-11-06T04:02:47.264Z,43.40
2022-11-06T04:03:47.129Z,44.30
2022-11-06T04:04:47.113Z,46.50
2022-11-06T04:05:47.117Z,44.30
2022-11-06T04:06:47.101Z,48.50
2022-11-06T04:07:47.100Z,48.20
2022-11-06T04:08:47.097Z,48.90
2022-11-06T04:09:47.085Z,53.00
2022-11-06T04:10:47.073Z,49.40
2022-11-06T04:11:47.085Z,55.50
2022-11-06T04:12:47.084Z,53.90
2022-11-06T04:13:47.067Z,54.10
2022-11-06T04:14:48.099Z,39.30
2022-11-06T04:15:47.058Z,41.60
2022-11-06T04:16:47.036Z,42.50
2022-11-06T04:17:47.033Z,43.30
2022-11-06T04:18:47.037Z,43.40
2022-11-06T04:19:47.032Z,44.60
2022-11-06T04:20:47.028Z,45.00
2022-11-06T04:21:47.025Z,42.80
2022-11-06T04:22:47.027Z,49.20
2022-11-06T04:23:47.013Z,52.00
2022-11-06T04:24:47.045Z,53.30
2022-11-06T04:25:46.994Z,52.00
2022-11-06T04:26:47.005Z,48.70
2022-11-06T04:27:46.985Z,49.20
2022-11-06T04:28:46.990Z,33.30
2022-11-06T04:29:47.000Z,39.50
2022-11-06T04:30:46.961Z,39.60
2022-11-06T04:31:46.954Z,39.50
2022-11-06T04:32:46.957Z,38.70
2022-11-06T04:33:46.933Z,41.90
2022-11-06T04:34:46.953Z,45.30
2022-11-06T04:35:46.941Z,42.60
2022-11-06T04:36:46.915Z,26.90
2022-11-06T04:37:47.921Z,38.30
2022-11-06T04:38:46.933Z,37.40
2022-11-06T04:39:46.937Z,36.30
2022-11-06T04:40:46.913Z,38.40
2022-11-06T04:41:46.903Z,44.00
2022-11-06T04:42:46.910Z,41.60
2022-11-06T04:43:46.882Z,33.70
2022-11-06T04:44:46.889Z,31.90
2022-11-06T04:45:46.888Z,27.90
2022-11-06T04:46:46.876Z,25.10
2022-11-06T04:47:46.863Z,33.20
2022-11-06T04:48:46.856Z,41.40
2022-11-06T04:49:46.872Z,36.30
2022-11-06T04:50:46.849Z,37.10
2022-11-06T04:51:46.853Z,43.90
2022-11-06T04:52:46.828Z,47.30
2022-11-06T04:53:47.915Z,42.70
2022-11-06T04:54:46.854Z,35.40
2022-11-06T04:55:46.823Z,37.80
2022-11-06T04:56:46.905Z,40.80
2022-11-06T04:57:46.809Z,48.40
2022-11-06T04:58:46.802Z,51.60
2022-11-06T04:59:46.822Z,49.30
2022-11-06T05:00:46.860Z,43.40
2022-11-06T05:01:47.976Z,45.30
2022-11-06T05:02:46.771Z,40.10
2022-11-06T05:03:46.762Z,38.00
2022-11-06T05:04:46.787Z,36.70
2022-11-06T05:05:46.771Z,32.10
2022-11-06T05:06:46.749Z,40.90
2022-11-06T05:07:46.755Z,48.30
2022-11-06T05:08:46.735Z,54.50
2022-11-06T05:09:46.725Z,56.80
2022-11-06T05:10:46.728Z,55.40
2022-11-06T05:11:46.717Z,40.40
2022-11-06T05:12:46.702Z,36.80
2022-11-06T05:13:46.705Z,40.30
2022-11-06T05:14:46.700Z,46.50
2022-11-06T05:15:46.712Z,46.40
2022-11-06T05:16:46.683Z,46.90
2022-11-06T05:17:46.696Z,48.00
2022-11-06T05:18:46.658Z,51.10
2022-11-06T05:19:46.662Z,54.50
2022-11-06T05:20:46.657Z,55.00
2022-11-06T05:21:46.691Z,55.90
2022-11-06T05:22:46.652Z,53.70
2022-11-06T05:23:46.656Z,48.20
2022-11-06T05:24:46.635Z,52.80
2022-11-06T05:25:46.630Z,52.20
2022-11-06T05:26:46.680Z,32.30
2022-11-06T05:27:46.621Z,43.20
2022-11-06T05:28:46.619Z,43.90
2022-11-06T05:29:46.602Z,45.70
2022-11-06T05:30:46.595Z,43.20
2022-11-06T05:31:46.751Z,43.90
2022-11-06T05:32:46.601Z,43.70
2022-11-06T05:33:46.599Z,46.20
2022-11-06T05:34:46.564Z,44.90
2022-11-06T05:35:46.563Z,46.20
2022-11-06T05:36:46.756Z,49.80
2022-11-06T05:37:46.543Z,48.00
2022-11-06T05:38:46.542Z,47.30
2022-11-06T05:39:46.540Z,49.50
2022-11-06T05:40:46.544Z,48.80
2022-11-06T05:41:46.621Z,38.00
2022-11-06T05:42:46.533Z,40.30
2022-11-06T05:43:46.510Z,38.10
2022-11-06T05:44:46.517Z,41.70
2022-11-06T05:45:46.506Z,45.60
2022-11-06T05:46:49.343Z,45.30
2022-11-06T05:47:47.480Z,41.20
2022-11-06T05:48:46.487Z,48.90
2022-11-06T05:49:46.484Z,46.30
2022-11-06T05:50:46.500Z,48.00
2022-11-06T05:51:46.489Z,49.00
2022-11-06T05:52:46.514Z,50.10
2022-11-06T05:53:46.451Z,36.00
2022-11-06T05:54:46.442Z,40.00
2022-11-06T05:55:46.445Z,42.20
2022-11-06T05:56:46.447Z,41.20
2022-11-06T05:57:46.438Z,38.90
2022-11-06T05:58:46.425Z,39.40
2022-11-06T05:59:46.427Z,38.60
2022-11-06T06:00:46.427Z,43.00
2022-11-06T06:01:46.506Z,45.80
2022-11-06T06:02:46.604Z,47.70
2022-11-06T06:03:46.396Z,48.30
2022-11-06T06:04:46.384Z,48.10
2022-11-06T06:05:46.387Z,48.70
2022-11-06T06:06:46.374Z,48.40
2022-11-06T06:07:46.394Z,42.50
2022-11-06T06:08:46.364Z,38.40
2022-11-06T06:09:46.364Z,41.40
2022-11-06T06:10:46.357Z,38.70
2022-11-06T06:11:46.340Z,40.30
2022-11-06T06:12:46.353Z,41.10
2022-11-06T06:13:46.374Z,39.10
2022-11-06T06:14:50.218Z,42.20
2022-11-06T06:15:47.324Z,46.70
2022-11-06T06:16:46.306Z,45.30
2022-11-06T06:17:46.302Z,44.10
2022-11-06T06:18:46.322Z,45.80
2022-11-06T06:19:46.288Z,47.10
2022-11-06T06:20:46.312Z,34.80
2022-11-06T06:21:46.343Z,40.50
2022-11-06T06:22:46.308Z,36.80
2022-11-06T06:23:46.279Z,37.30
2022-11-06T06:24:46.295Z,39.70
2022-11-06T06:25:46.307Z,41.20
2022-11-06T06:26:46.271Z,43.70
2022-11-06T06:27:46.247Z,47.50
2022-11-06T06:28:46.282Z,46.80
2022-11-06T06:29:46.249Z,46.40
2022-11-06T06:30:46.241Z,45.70
2022-11-06T06:31:46.235Z,48.90
2022-11-06T06:32:46.255Z,51.30
2022-11-06T06:33:46.237Z,25.10
2022-11-06T06:34:47.203Z,39.90
2022-11-06T06:35:46.207Z,40.20
2022-11-06T06:36:46.211Z,41.60
2022-11-06T06:37:46.176Z,37.90
2022-11-06T06:38:46.228Z,39.30
2022-11-06T06:39:46.163Z,41.00
2022-11-06T06:40:46.181Z,39.00
2022-11-06T06:41:46.172Z,43.70
2022-11-06T06:42:46.162Z,47.70
2022-11-06T06:43:46.145Z,49.20
2022-11-06T06:44:46.163Z,49.80
2022-11-06T06:45:46.166Z,47.90
2022-11-06T06:46:46.149Z,30.30
2022-11-06T06:47:46.135Z,39.70
2022-11-06T06:48:46.117Z,43.90
2022-11-06T06:49:46.131Z,40.80
2022-11-06T06:50:46.116Z,41.00
2022-11-06T06:52:21.633Z,44.80
2022-11-06T06:52:46.098Z,39.90
2022-11-06T06:53:46.082Z,37.20
2022-11-06T06:54:46.114Z,38.30
2022-11-06T06:55:46.084Z,37.00
2022-11-06T06:56:46.079Z,39.30
2022-11-06T06:57:46.051Z,38.90
2022-11-06T06:58:46.058Z,39.90
2022-11-06T06:59:46.056Z,42.70
2022-11-06T07:00:46.112Z,34.40
2022-11-06T07:01:46.169Z,39.00
2022-11-06T07:02:46.035Z,36.70
2022-11-06T07:03:46.019Z,34.00
2022-11-06T07:04:46.030Z,37.00
2022-11-06T07:05:46.015Z,38.70
2022-11-06T07:06:46.019Z,35.40
2022-11-06T07:07:46.008Z,34.70
2022-11-06T07:08:45.999Z,36.70
2022-11-06T07:09:45.999Z,34.60
2022-11-06T07:10:45.970Z,40.20
2022-11-06T07:11:46.160Z,35.00
2022-11-06T07:12:45.967Z,40.70
2022-11-06T07:13:45.962Z,39.80
2022-11-06T07:14:45.971Z,46.40
2022-11-06T07:15:45.951Z,41.70
2022-11-06T07:16:51.062Z,45.90
2022-11-06T07:17:48.130Z,27.20
2022-11-06T07:18:45.932Z,32.50
2022-11-06T07:19:45.927Z,33.90
2022-11-06T07:20:45.940Z,32.50
2022-11-06T07:21:45.931Z,38.00
2022-11-06T07:22:45.935Z,39.40
2022-11-06T07:23:45.920Z,38.60
2022-11-06T07:24:45.899Z,39.20
2022-11-06T07:25:45.892Z,41.20
2022-11-06T07:26:45.950Z,38.60
2022-11-06T07:27:45.878Z,39.60
2022-11-06T07:28:45.866Z,41.40
2022-11-06T07:29:45.871Z,39.50
2022-11-06T07:30:45.858Z,42.70
2022-11-06T07:31:45.863Z,44.90
2022-11-06T07:32:45.855Z,43.30
2022-11-06T07:33:45.855Z,42.90
2022-11-06T07:34:45.834Z,39.20
2022-11-06T07:35:45.818Z,39.90
2022-11-06T07:36:46.790Z,40.30
2022-11-06T07:37:45.890Z,26.10
2022-11-06T07:38:45.834Z,37.80
2022-11-06T07:39:45.819Z,38.30
2022-11-06T07:40:45.803Z,34.60
2022-11-06T07:41:45.852Z,32.50
2022-11-06T07:42:45.785Z,28.00
2022-11-06T07:43:45.774Z,36.70
2022-11-06T07:44:45.810Z,33.60
2022-11-06T07:45:45.772Z,27.30
2022-11-06T07:46:45.794Z,32.90
2022-11-06T07:47:45.770Z,35.50
2022-11-06T07:48:46.682Z,24.80
2022-11-06T07:49:50.736Z,25.00
2022-11-06T07:50:47.762Z,24.10
2022-11-06T07:51:45.737Z,16.90
2022-11-06T07:52:45.743Z,19.20
2022-11-06T07:53:45.753Z,18.60
2022-11-06T07:54:45.710Z,19.60
2022-11-06T07:55:45.714Z,20.40
2022-11-06T07:56:45.750Z,18.80
2022-11-06T07:57:45.765Z,20.80
2022-11-06T07:58:45.708Z,18.20
2022-11-06T07:59:45.794Z,18.30
2022-11-06T08:00:45.722Z,17.40
2022-11-06T08:01:45.878Z,20.10
2022-11-06T08:02:45.686Z,18.80
2022-11-06T08:03:45.686Z,18.90
2022-11-06T08:04:45.703Z,20.80
2022-11-06T08:05:45.669Z,19.60
2022-11-06T08:06:45.647Z,17.40
2022-11-06T08:07:45.657Z,19.10
2022-11-06T08:08:45.670Z,17.80
2022-11-06T08:09:45.682Z,17.20
2022-11-06T08:10:45.637Z,16.70
2022-11-06T08:11:45.679Z,13.50
2022-11-06T08:12:45.624Z,12.20
2022-11-06T08:13:45.610Z,13.90
2022-11-06T08:14:45.681Z,13.40
2022-11-06T08:15:46.294Z,13.50
2022-11-06T08:16:45.597Z,12.50
2022-11-06T08:17:45.633Z,11.60
2022-11-06T08:18:45.585Z,11.70
2022-11-06T08:19:45.848Z,13.20
2022-11-06T08:20:45.560Z,11.80
2022-11-06T08:21:45.561Z,10.70
2022-11-06T08:22:45.547Z,11.50
2022-11-06T08:23:45.622Z,9.50
2022-11-06T08:24:45.533Z,10.20
2022-11-06T08:25:45.563Z,10.70
2022-11-06T08:26:45.524Z,11.90
2022-11-06T08:27:45.508Z,9.10
2022-11-06T08:28:45.527Z,11.50
2022-11-06T08:29:45.532Z,10.60
2022-11-06T08:30:45.524Z,11.70
2022-11-06T08:31:45.552Z,11.00
2022-11-06T08:32:45.508Z,10.70
2022-11-06T08:33:45.475Z,9.60
2022-11-06T08:34:45.496Z,12.40
2022-11-06T08:35:45.468Z,10.10
2022-11-06T08:36:49.288Z,8.80
2022-11-06T08:37:46.463Z,10.20
2022-11-06T08:38:45.472Z,12.10
2022-11-06T08:39:45.451Z,10.70
2022-11-06T08:40:50.748Z,10.70
2022-11-06T08:41:47.460Z,12.40
2022-11-06T08:42:45.449Z,9.10
2022-11-06T08:43:45.425Z,10.00
2022-11-06T08:44:45.433Z,10.00
2022-11-06T08:45:45.418Z,10.60
2022-11-06T08:46:50.782Z,9.10
2022-11-06T08:47:47.440Z,11.90
2022-11-06T08:48:45.400Z,9.40
2022-11-06T08:49:45.407Z,10.10
2022-11-06T08:50:45.409Z,9.40
2022-11-06T08:51:45.456Z,10.50
2022-11-06T08:52:45.383Z,10.40
2022-11-06T08:53:45.426Z,9.00
2022-11-06T08:54:45.384Z,7.00
2022-11-06T08:55:45.365Z,8.40
2022-11-06T08:56:45.363Z,11.30
2022-11-06T08:57:45.353Z,9.60
2022-11-06T08:58:45.360Z,8.30
2022-11-06T08:59:45.340Z,10.00
2022-11-06T09:00:45.363Z,10.70
2022-11-06T09:01:45.512Z,8.10
2022-11-06T09:02:45.341Z,7.70
2022-11-06T09:03:45.311Z,9.40
2022-11-06T09:04:45.331Z,8.90
2022-11-06T09:05:45.288Z,8.90
2022-11-06T09:06:45.286Z,9.00
2022-11-06T09:07:45.288Z,8.70
2022-11-06T09:08:45.305Z,8.50
2022-11-06T09:09:45.277Z,10.60
2022-11-06T09:10:45.262Z,7.70
2022-11-06T09:11:45.271Z,9.90
2022-11-06T09:12:45.263Z,9.20
2022-11-06T09:13:45.245Z,8.30
2022-11-06T09:14:45.258Z,9.30
2022-11-06T09:15:45.250Z,10.00
2022-11-06T09:16:45.236Z,8.30
2022-11-06T09:17:45.253Z,8.30
2022-11-06T09:18:45.253Z,9.90
2022-11-06T09:19:45.195Z,7.20
2022-11-06T09:20:45.196Z,8.20
2022-11-06T09:21:48.004Z,8.30
2022-11-06T09:22:46.221Z,8.30
2022-11-06T09:23:45.172Z,8.80
2022-11-06T09:25:02.694Z,10.50
2022-11-06T09:25:47.171Z,9.30
2022-11-06T09:26:45.158Z,8.60
2022-11-06T09:27:45.157Z,9.10
2022-11-06T09:28:45.161Z,7.40
2022-11-06T09:29:45.147Z,8.00
2022-11-06T09:30:45.135Z,7.10
2022-11-06T09:31:45.162Z,10.10
2022-11-06T09:32:45.126Z,9.20
2022-11-06T09:33:45.129Z,9.60
2022-11-06T09:34:45.114Z,9.40
2022-11-06T09:35:45.125Z,9.30
2022-11-06T09:36:45.124Z,10.40
2022-11-06T09:37:45.128Z,8.40
2022-11-06T09:38:45.215Z,7.00
2022-11-06T09:39:45.109Z,7.60
2022-11-06T09:40:45.092Z,9.20
2022-11-06T09:41:45.072Z,6.90
2022-11-06T09:42:45.064Z,6.80
2022-11-06T09:44:47.056Z,7.30
2022-11-06T09:45:45.060Z,6.30
2022-11-06T09:46:45.056Z,7.40
2022-11-06T09:47:45.029Z,8.70
2022-11-06T09:48:45.038Z,6.20
2022-11-06T09:49:45.038Z,6.10
2022-11-06T09:50:45.983Z,5.50
2022-11-06T09:51:45.034Z,7.30
2022-11-06T09:52:45.066Z,5.70
2022-11-06T09:53:45.069Z,7.70
2022-11-06T09:54:45.121Z,8.00
2022-11-06T09:55:45.203Z,7.90
2022-11-06T09:56:45.030Z,6.90
2022-11-06T09:57:44.991Z,7.70
2022-11-06T09:58:44.980Z,5.40
2022-11-06T09:59:45.020Z,6.30
2022-11-06T10:00:44.982Z,6.30
2022-11-06T10:01:45.126Z,6.60
2022-11-06T10:02:44.996Z,7.40
2022-11-06T10:03:44.934Z,7.10
2022-11-06T10:04:44.962Z,7.20
2022-11-06T10:05:44.943Z,5.30
2022-11-06T10:06:44.925Z,4.90
2022-11-06T10:07:44.937Z,6.10
2022-11-06T10:08:44.921Z,7.10
2022-11-06T10:09:44.960Z,6.40
2022-11-06T10:10:44.891Z,7.80
2022-11-06T10:11:44.929Z,6.30
2022-11-06T10:12:44.890Z,6.80
2022-11-06T10:13:44.920Z,4.90
2022-11-06T10:14:44.976Z,7.70
2022-11-06T10:15:45.019Z,4.90
2022-11-06T10:16:44.891Z,5.30
2022-11-06T10:17:44.883Z,6.00
2022-11-06T10:18:44.892Z,6.80
2022-11-06T10:19:44.959Z,5.00
2022-11-06T10:20:44.943Z,6.80
2022-11-06T10:21:44.844Z,5.40
2022-11-06T10:22:44.990Z,6.10
2022-11-06T10:23:44.831Z,5.40
2022-11-06T10:24:44.810Z,7.30
2022-11-06T10:25:44.831Z,7.30
2022-11-06T10:26:44.783Z,6.10
2022-11-06T10:27:44.778Z,5.50
2022-11-06T10:28:44.815Z,6.40
2022-11-06T10:29:44.859Z,6.40
2022-11-06T10:30:44.776Z,5.90
2022-11-06T10:31:44.784Z,6.30
2022-11-06T10:32:44.813Z,5.70
2022-11-06T10:33:45.347Z,5.00
2022-11-06T10:34:44.787Z,5.40
2022-11-06T10:35:44.773Z,6.80
2022-11-06T10:36:48.818Z,6.90
2022-11-06T10:37:46.771Z,8.10
2022-11-06T10:38:44.742Z,8.10
2022-11-06T10:39:44.801Z,7.40
2022-11-06T10:40:44.766Z,6.40
2022-11-06T10:41:44.717Z,8.10
2022-11-06T10:42:44.744Z,9.30
2022-11-06T10:43:44.712Z,7.40
2022-11-06T10:44:44.733Z,7.20
2022-11-06T10:45:45.386Z,6.10
2022-11-06T10:46:44.730Z,6.00
2022-11-06T10:47:44.719Z,7.70
2022-11-06T10:48:44.676Z,6.70
2022-11-06T10:49:45.374Z,6.80
2022-11-06T10:50:44.712Z,5.60
2022-11-06T10:51:44.688Z,7.00
2022-11-06T10:52:44.663Z,5.50
2022-11-06T10:53:45.832Z,6.70
2022-11-06T10:54:44.677Z,5.90
2022-11-06T10:55:44.696Z,7.10
2022-11-06T10:56:44.882Z,4.90
2022-11-06T10:57:45.359Z,6.10
2022-11-06T10:58:44.755Z,4.60
2022-11-06T10:59:44.633Z,4.90
2022-11-06T11:00:44.698Z,5.30
2022-11-06T11:01:44.807Z,6.30
2022-11-06T11:02:44.668Z,4.50
2022-11-06T11:03:44.626Z,6.10
2022-11-06T11:04:44.633Z,7.20
2022-11-06T11:05:44.638Z,6.60
2022-11-06T11:06:44.611Z,5.00
2022-11-06T11:07:45.039Z,7.60
2022-11-06T11:08:44.628Z,5.50
2022-11-06T11:09:44.625Z,6.10
2022-11-06T11:10:56.077Z,4.90
2022-11-06T11:11:46.591Z,5.50
2022-11-06T11:12:44.655Z,6.30
2022-11-06T11:13:44.754Z,6.30
2022-11-06T11:14:45.523Z,5.10
2022-11-06T11:15:46.305Z,5.50
2022-11-06T11:16:44.653Z,5.90
2022-11-06T11:17:44.664Z,4.90
2022-11-06T11:18:44.690Z,7.30
2022-11-06T11:19:44.663Z,4.50
2022-11-06T11:20:44.628Z,5.30
2022-11-06T11:21:44.778Z,4.00
2022-11-06T11:22:44.694Z,4.30
2022-11-06T11:23:44.607Z,5.20
2022-11-06T11:24:44.547Z,3.00
2022-11-06T11:25:44.543Z,4.60
2022-11-06T11:26:44.601Z,4.60
2022-11-06T11:27:44.514Z,4.60
2022-11-06T11:28:44.548Z,6.10
2022-11-06T11:29:44.520Z,4.40
2022-11-06T11:30:44.521Z,5.60
2022-11-06T11:31:44.513Z,5.90
2022-11-06T11:32:44.494Z,5.40
2022-11-06T11:33:44.487Z,5.00
2022-11-06T11:34:49.203Z,6.60
2022-11-06T11:35:46.516Z,5.80
2022-11-06T11:36:44.536Z,4.20
2022-11-06T11:37:44.568Z,3.30
2022-11-06T11:38:44.453Z,5.90
2022-11-06T11:39:44.448Z,4.30
2022-11-06T11:40:44.486Z,4.20
2022-11-06T11:41:44.480Z,4.50
2022-11-06T11:42:44.507Z,5.20
2022-11-06T11:43:44.428Z,5.30
2022-11-06T11:44:44.442Z,5.30
2022-11-06T11:45:44.563Z,4.60
2022-11-06T11:46:44.421Z,5.80
2022-11-06T11:47:44.417Z,4.20
2022-11-06T11:48:44.424Z,4.90
2022-11-06T11:49:44.628Z,4.50
2022-11-06T11:50:44.415Z,4.30
2022-11-06T11:51:44.401Z,4.30
2022-11-06T11:54:05.350Z,4.70
2022-11-06T11:54:44.384Z,6.20
2022-11-06T11:55:44.453Z,5.10
2022-11-06T11:57:03.744Z,5.90
2022-11-06T11:57:46.417Z,4.20
2022-11-06T11:58:44.376Z,6.80
2022-11-06T11:59:44.461Z,4.00
2022-11-06T12:00:44.506Z,4.90
2022-11-06T12:01:44.491Z,4.60
2022-11-06T12:02:44.449Z,4.70
2022-11-06T12:03:44.650Z,3.80
2022-11-06T12:04:44.391Z,3.90
2022-11-06T12:05:44.334Z,5.60
2022-11-06T12:06:44.307Z,4.20
2022-11-06T12:07:46.424Z,5.30
2022-11-06T12:08:45.307Z,3.50
2022-11-06T12:09:44.304Z,5.50
2022-11-06T12:10:44.315Z,3.90
2022-11-06T12:11:44.300Z,3.80
2022-11-06T12:12:44.873Z,3.70
2022-11-06T12:13:44.276Z,3.40
2022-11-06T12:14:44.861Z,3.60
2022-11-06T12:15:44.347Z,3.30
2022-11-06T12:16:44.281Z,3.30
2022-11-06T12:17:44.378Z,3.60
2022-11-06T12:18:44.274Z,2.90
2022-11-06T12:19:44.264Z,3.40
2022-11-06T12:20:44.249Z,3.70
2022-11-06T12:21:44.328Z,3.20
2022-11-06T12:22:44.272Z,3.70
2022-11-06T12:23:44.522Z,3.60
2022-11-06T12:24:44.227Z,3.60
2022-11-06T12:25:44.369Z,2.90
2022-11-06T12:26:44.219Z,3.20
2022-11-06T12:27:44.498Z,2.70
2022-11-06T12:28:44.209Z,4.60
2022-11-06T12:29:45.248Z,4.70
2022-11-06T12:30:44.249Z,2.90
2022-11-06T12:31:44.267Z,3.80
2022-11-06T12:32:44.334Z,3.50
2022-11-06T12:34:05.722Z,3.10
2022-11-06T12:34:46.203Z,5.90
2022-11-06T12:35:44.329Z,4.40
2022-11-06T12:36:45.392Z,3.00
2022-11-06T12:37:44.208Z,2.70
2022-11-06T12:38:44.476Z,2.40
2022-11-06T12:39:44.190Z,2.70
2022-11-06T12:40:44.193Z,2.90
2022-11-06T12:41:44.152Z,4.10
2022-11-06T12:42:44.126Z,3.80
2022-11-06T12:43:44.149Z,3.20
2022-11-06T12:44:44.140Z,3.60
2022-11-06T12:45:44.118Z,3.70
2022-11-06T12:46:44.115Z,2.70
2022-11-06T12:47:44.092Z,3.30
2022-11-06T12:48:44.104Z,5.40
2022-11-06T12:49:44.086Z,2.80
2022-11-06T12:50:44.082Z,4.60
2022-11-06T12:51:44.064Z,2.80
2022-11-06T12:52:44.086Z,2.00
2022-11-06T12:53:44.071Z,4.70
2022-11-06T12:54:44.041Z,5.00
2022-11-06T12:55:44.041Z,2.40
2022-11-06T12:56:44.051Z,3.80
2022-11-06T12:57:44.042Z,2.00
2022-11-06T12:58:44.077Z,2.00
2022-11-06T12:59:44.083Z,4.50
2022-11-06T13:00:44.014Z,3.00
2022-11-06T13:01:44.157Z,2.90
2022-11-06T13:02:44.093Z,3.20
2022-11-06T13:03:44.000Z,2.40